createdAt,value
2018-11-27T00:02:25.866Z,17.73
2018-11-27T00:04:53.086Z,17.33
2018-11-27T00:07:20.315Z,15.50
2018-11-27T00:09:47.563Z,17.30
2018-11-27T00:12:14.794Z,16.27
2018-11-27T00:14:41.987Z,15.23
2018-11-27T00:17:09.207Z,16.53
2018-11-27T00:19:36.438Z,17.30
2018-11-27T00:22:03.656Z,17.73
2018-11-27T00:24:30.895Z,15.47
2018-11-27T00:26:58.099Z,16.57
2018-11-27T00:29:25.350Z,16.10
2018-11-27T00:31:52.567Z,17.13
2018-11-27T00:34:19.849Z,17.53
2018-11-27T00:36:47.106Z,17.47
2018-11-27T00:39:14.355Z,17.13
2018-11-27T00:41:41.679Z,16.87
2018-11-27T00:44:09.031Z,17.30
2018-11-27T00:46:36.218Z,18.60
2018-11-27T00:49:03.785Z,18.50
2018-11-27T00:51:31.003Z,17.37
2018-11-27T00:53:58.219Z,17.63
2018-11-27T00:56:25.439Z,20.13
2018-11-27T00:58:52.655Z,19.83
2018-11-27T01:01:19.855Z,19.73
2018-11-27T01:03:47.041Z,21.10
2018-11-27T01:06:14.271Z,19.27
2018-11-27T01:08:41.484Z,19.70
2018-11-27T01:11:08.703Z,20.83
2018-11-27T01:13:35.925Z,21.00
2018-11-27T01:16:03.158Z,19.03
2018-11-27T01:18:30.362Z,20.17
2018-11-27T01:20:57.582Z,20.60
2018-11-27T01:23:24.803Z,19.23
2018-11-27T01:25:51.999Z,21.03
2018-11-27T01:28:19.141Z,20.27
2018-11-27T01:30:46.383Z,20.90
2018-11-27T01:33:13.581Z,21.53
2018-11-27T01:35:40.730Z,20.60
2018-11-27T01:38:07.938Z,20.03
2018-11-27T01:40:35.180Z,20.37
2018-11-27T01:43:02.374Z,20.30
2018-11-27T01:45:29.534Z,20.93
2018-11-27T01:47:56.732Z,21.00
2018-11-27T01:50:23.949Z,21.03
2018-11-27T01:52:51.146Z,20.00
2018-11-27T01:55:19.511Z,22.03
2018-11-27T01:57:46.778Z,19.53
2018-11-27T02:00:25.086Z,20.43
2018-11-27T02:02:52.562Z,19.23
2018-11-27T02:05:20.015Z,19.43
2018-11-27T02:07:47.236Z,18.17
2018-11-27T02:10:14.387Z,19.30
2018-11-27T02:12:43.078Z,19.23
2018-11-27T02:15:10.965Z,20.43
2018-11-27T02:17:38.178Z,19.60
2018-11-27T02:20:06.258Z,20.47
2018-11-27T02:22:33.471Z,21.50
2018-11-27T02:25:00.688Z,19.53
2018-11-27T02:27:27.902Z,20.90
2018-11-27T02:29:55.042Z,19.90
2018-11-27T02:32:22.250Z,19.10
2018-11-27T02:34:49.466Z,19.70
2018-11-27T02:37:16.686Z,21.80
2018-11-27T02:39:43.879Z,19.93
2018-11-27T02:42:11.112Z,21.90
2018-11-27T02:44:38.310Z,21.43
2018-11-27T02:47:05.514Z,19.73
2018-11-27T02:49:32.710Z,22.47
2018-11-27T02:51:59.922Z,20.83
2018-11-27T02:54:27.135Z,21.73
2018-11-27T02:56:54.382Z,20.63
2018-11-27T02:59:21.597Z,20.93
2018-11-27T03:01:48.832Z,20.43
2018-11-27T03:04:16.059Z,22.17
2018-11-27T03:06:43.267Z,19.93
2018-11-27T03:09:10.490Z,19.20
2018-11-27T03:11:37.683Z,19.57
2018-11-27T03:14:05.443Z,20.10
2018-11-27T03:16:32.584Z,20.90
2018-11-27T03:18:59.807Z,20.37
2018-11-27T03:21:27.007Z,18.93
2018-11-27T03:23:54.233Z,21.20
2018-11-27T03:26:21.428Z,20.97
2018-11-27T03:28:48.658Z,21.40
2018-11-27T03:31:15.845Z,21.40
2018-11-27T03:33:43.061Z,20.83
2018-11-27T03:36:10.262Z,20.33
2018-11-27T03:38:37.558Z,20.63
2018-11-27T03:41:04.999Z,23.30
2018-11-27T03:43:32.209Z,21.33
2018-11-27T03:45:59.407Z,21.20
2018-11-27T03:48:26.609Z,23.17
2018-11-27T03:50:53.810Z,20.77
2018-11-27T03:53:21.072Z,21.70
2018-11-27T03:55:48.291Z,21.63
2018-11-27T03:58:15.502Z,20.83
2018-11-27T04:00:42.707Z,21.23
2018-11-27T04:03:10.516Z,21.90
2018-11-27T04:05:37.898Z,22.10
2018-11-27T04:08:06.686Z,21.33
2018-11-27T04:10:33.910Z,23.37
2018-11-27T04:13:01.080Z,21.30
2018-11-27T04:15:28.338Z,21.57
2018-11-27T04:17:55.560Z,21.83
2018-11-27T04:20:22.790Z,23.40
2018-11-27T04:22:49.983Z,21.20
2018-11-27T04:25:17.626Z,21.97
2018-11-27T04:27:45.107Z,20.80
2018-11-27T04:30:13.491Z,21.63
2018-11-27T04:32:40.767Z,21.97
2018-11-27T04:35:08.428Z,21.90
2018-11-27T04:37:35.600Z,22.13
2018-11-27T04:40:03.006Z,21.93
2018-11-27T04:42:30.235Z,20.70
2018-11-27T04:44:57.427Z,22.23
2018-11-27T04:47:24.675Z,23.83
2018-11-27T04:49:51.896Z,20.20
2018-11-27T04:52:19.107Z,22.47
2018-11-27T04:54:46.365Z,22.23
2018-11-27T04:57:13.578Z,21.37
2018-11-27T04:59:40.716Z,22.93
2018-11-27T05:02:07.931Z,21.77
2018-11-27T05:04:35.134Z,21.97
2018-11-27T05:07:02.350Z,22.17
2018-11-27T05:09:29.541Z,21.73
2018-11-27T05:11:56.750Z,21.47
2018-11-27T05:14:23.919Z,21.80
2018-11-27T05:16:51.143Z,21.77
2018-11-27T05:19:18.362Z,21.53
2018-11-27T05:21:45.553Z,23.13
2018-11-27T05:24:12.779Z,20.87
2018-11-27T05:26:40.027Z,22.77
2018-11-27T05:29:07.240Z,21.20
2018-11-27T05:31:34.463Z,21.57
2018-11-27T05:34:01.676Z,21.83
2018-11-27T05:36:28.919Z,22.07
2018-11-27T05:38:56.114Z,22.03
2018-11-27T05:41:23.328Z,21.63
2018-11-27T05:43:50.526Z,22.87
2018-11-27T05:46:17.765Z,21.10
2018-11-27T05:48:44.958Z,21.70
2018-11-27T05:51:12.134Z,21.07
2018-11-27T05:53:39.308Z,21.67
2018-11-27T05:56:06.551Z,22.03
2018-11-27T05:58:33.788Z,21.43
2018-11-27T06:01:01.027Z,22.13
2018-11-27T06:03:28.229Z,22.77
2018-11-27T06:05:55.431Z,22.10
2018-11-27T06:08:22.624Z,22.73
2018-11-27T06:10:49.838Z,21.47
2018-11-27T06:13:17.039Z,21.43
2018-11-27T06:15:44.278Z,21.50
2018-11-27T06:18:11.468Z,22.27
2018-11-27T06:20:38.659Z,21.17
2018-11-27T06:23:05.925Z,21.43
2018-11-27T06:25:33.147Z,20.03
2018-11-27T06:28:00.864Z,22.60
2018-11-27T06:30:28.442Z,21.63
2018-11-27T06:32:55.651Z,20.80
2018-11-27T06:35:24.369Z,21.57
2018-11-27T06:37:51.523Z,20.33
2018-11-27T06:40:20.152Z,21.80
2018-11-27T06:42:47.399Z,22.10
2018-11-27T06:45:15.030Z,22.93
2018-11-27T06:47:42.420Z,21.63
2018-11-27T06:50:11.123Z,20.97
2018-11-27T06:52:38.327Z,22.27
2018-11-27T06:55:06.507Z,21.73
2018-11-27T06:57:33.739Z,21.00
2018-11-27T07:00:01.023Z,21.63
2018-11-27T07:02:28.234Z,19.87
2018-11-27T07:04:55.443Z,22.03
2018-11-27T07:07:22.642Z,22.53
2018-11-27T07:09:49.851Z,22.63
2018-11-27T07:12:17.016Z,22.03
2018-11-27T07:14:44.252Z,21.63
2018-11-27T07:17:11.449Z,21.83
2018-11-27T07:19:38.665Z,22.07
2018-11-27T07:22:05.867Z,21.20
2018-11-27T07:24:33.069Z,22.30
2018-11-27T07:27:00.273Z,21.87
2018-11-27T07:29:27.511Z,21.50
2018-11-27T07:31:54.760Z,21.87
2018-11-27T07:34:21.965Z,21.40
2018-11-27T07:36:49.190Z,21.93
2018-11-27T07:39:16.427Z,21.43
2018-11-27T07:41:43.621Z,21.70
2018-11-27T07:44:10.843Z,21.07
2018-11-27T07:46:38.057Z,21.77
2018-11-27T07:49:05.401Z,22.27
2018-11-27T07:51:32.623Z,22.33
2018-11-27T07:53:59.858Z,21.97
2018-11-27T07:56:27.102Z,23.73
2018-11-27T07:58:54.288Z,23.27
2018-11-27T08:01:21.518Z,22.60
2018-11-27T08:03:48.675Z,23.13
2018-11-27T08:06:15.903Z,21.97
2018-11-27T08:08:43.104Z,21.63
2018-11-27T08:11:10.335Z,21.77
2018-11-27T08:13:37.524Z,21.07
2018-11-27T08:16:04.723Z,22.10
2018-11-27T08:18:31.987Z,22.00
2018-11-27T08:20:59.202Z,22.57
2018-11-27T08:23:26.382Z,22.80
2018-11-27T08:25:53.583Z,22.57
2018-11-27T08:28:20.791Z,23.30
2018-11-27T08:30:48.028Z,22.00
2018-11-27T08:33:15.230Z,22.53
2018-11-27T08:35:42.377Z,22.53
2018-11-27T08:38:09.514Z,21.33
2018-11-27T08:40:36.726Z,21.10
2018-11-27T08:43:04.418Z,22.23
2018-11-27T08:45:31.612Z,23.20
2018-11-27T08:47:58.827Z,22.73
2018-11-27T08:50:26.446Z,22.07
2018-11-27T08:52:54.155Z,23.00
2018-11-27T08:55:22.108Z,22.57
2018-11-27T08:57:49.408Z,22.47
2018-11-27T09:00:17.147Z,22.53
2018-11-27T09:02:45.538Z,22.73
2018-11-27T09:05:11.755Z,23.97
2018-11-27T09:07:38.956Z,22.57
2018-11-27T09:10:15.493Z,22.23
2018-11-27T09:12:42.682Z,22.60
2018-11-27T09:15:11.343Z,22.37
2018-11-27T09:17:38.647Z,21.40
2018-11-27T09:20:07.130Z,22.27
2018-11-27T09:22:34.363Z,23.07
2018-11-27T09:25:01.561Z,23.07
2018-11-27T09:27:28.782Z,24.10
2018-11-27T09:29:56.004Z,22.03
2018-11-27T09:32:23.210Z,22.33
2018-11-27T09:34:50.408Z,21.37
2018-11-27T09:37:17.622Z,22.70
2018-11-27T09:39:44.823Z,22.40
2018-11-27T09:42:11.967Z,20.67
2018-11-27T09:44:39.178Z,23.40
2018-11-27T09:47:06.397Z,22.87
2018-11-27T09:49:33.540Z,22.63
2018-11-27T09:52:00.778Z,21.50
2018-11-27T09:54:27.975Z,21.90
2018-11-27T09:56:55.231Z,20.27
2018-11-27T09:59:22.434Z,20.53
2018-11-27T10:01:49.635Z,20.17
2018-11-27T10:04:16.818Z,21.13
2018-11-27T10:06:44.063Z,21.73
2018-11-27T10:09:11.352Z,21.93
2018-11-27T10:11:38.495Z,20.87
2018-11-27T10:14:05.762Z,20.97
2018-11-27T10:16:32.968Z,20.07
2018-11-27T10:19:00.202Z,19.20
2018-11-27T10:21:27.407Z,20.70
2018-11-27T10:23:54.600Z,19.97
2018-11-27T10:26:21.741Z,19.63
2018-11-27T10:28:48.989Z,22.20
2018-11-27T10:31:16.200Z,21.13
2018-11-27T10:33:43.419Z,19.57
2018-11-27T10:36:10.598Z,20.80
2018-11-27T10:38:37.833Z,19.50
2018-11-27T10:41:05.012Z,19.63
2018-11-27T10:43:32.223Z,20.67
2018-11-27T10:45:59.435Z,22.67
2018-11-27T10:48:26.670Z,20.07
2018-11-27T10:50:53.868Z,22.10
2018-11-27T10:53:21.091Z,20.07
2018-11-27T10:55:48.226Z,19.23
2018-11-27T10:58:15.460Z,21.23
2018-11-27T11:00:48.342Z,19.43
2018-11-27T11:03:46.187Z,19.33
2018-11-27T11:06:13.394Z,19.10
2018-11-27T11:08:40.618Z,17.97
2018-11-27T11:11:07.984Z,20.03
2018-11-27T11:13:35.208Z,20.37
2018-11-27T11:16:02.358Z,18.90
2018-11-27T11:18:29.604Z,19.17
2018-11-27T11:20:56.804Z,19.07
2018-11-27T11:23:24.027Z,18.37
2018-11-27T11:25:51.246Z,17.43
2018-11-27T11:28:19.122Z,18.30
2018-11-27T11:30:46.356Z,18.80
2018-11-27T11:33:13.566Z,18.97
2018-11-27T11:35:40.775Z,20.97
2018-11-27T11:38:07.974Z,20.07
2018-11-27T11:40:35.179Z,18.90
2018-11-27T11:43:02.352Z,18.50
2018-11-27T11:45:29.590Z,19.80
2018-11-27T11:47:56.788Z,18.07
2018-11-27T11:50:25.606Z,19.10
2018-11-27T11:52:58.514Z,19.23
2018-11-27T11:55:25.674Z,18.40
2018-11-27T11:57:52.844Z,17.13
2018-11-27T12:00:21.930Z,18.80
2018-11-27T12:02:49.114Z,17.23
2018-11-27T12:05:16.367Z,18.33
2018-11-27T12:07:43.576Z,17.63
2018-11-27T12:10:12.250Z,19.20
2018-11-27T12:12:39.610Z,17.10
2018-11-27T12:15:10.331Z,16.63
2018-11-27T12:17:37.563Z,17.50
2018-11-27T12:20:05.798Z,17.07
2018-11-27T12:22:33.020Z,18.50
2018-11-27T12:25:00.211Z,18.43
2018-11-27T12:27:27.414Z,16.47
2018-11-27T12:29:54.557Z,18.50
2018-11-27T12:32:21.750Z,19.13
2018-11-27T12:34:48.961Z,17.57
2018-11-27T12:37:16.149Z,19.80
2018-11-27T12:39:43.348Z,20.57
2018-11-27T12:42:10.562Z,18.97
2018-11-27T12:44:37.747Z,18.10
2018-11-27T12:47:05.043Z,17.57
2018-11-27T12:49:32.236Z,18.10
2018-11-27T12:51:59.383Z,19.03
2018-11-27T12:54:26.599Z,18.77
2018-11-27T12:56:53.839Z,19.53
2018-11-27T12:59:21.043Z,18.90
2018-11-27T13:01:48.193Z,18.50
2018-11-27T13:04:15.411Z,18.17
2018-11-27T13:06:42.671Z,19.17
2018-11-27T13:09:09.890Z,18.33
2018-11-27T13:11:37.302Z,18.30
2018-11-27T13:14:04.700Z,19.83
2018-11-27T13:16:31.861Z,17.80
2018-11-27T13:18:59.098Z,18.43
2018-11-27T13:21:26.315Z,19.40
2018-11-27T13:23:53.506Z,18.57
2018-11-27T13:26:20.743Z,18.77
2018-11-27T13:28:47.975Z,18.97
2018-11-27T13:31:15.571Z,18.83
2018-11-27T13:33:47.051Z,18.43
2018-11-27T13:36:14.275Z,18.03
2018-11-27T13:38:41.511Z,18.27
2018-11-27T13:41:08.691Z,17.50
2018-11-27T13:43:35.949Z,17.93
2018-11-27T13:46:03.171Z,21.47
2018-11-27T13:48:30.384Z,20.33
2018-11-27T13:50:57.582Z,19.47
2018-11-27T13:53:24.796Z,19.67
2018-11-27T13:55:52.030Z,18.77
2018-11-27T13:58:19.254Z,18.93
2018-11-27T14:00:46.495Z,20.53
2018-11-27T14:03:13.795Z,18.07
2018-11-27T14:05:41.038Z,19.90
2018-11-27T14:08:08.682Z,19.10
2018-11-27T14:10:36.542Z,18.67
2018-11-27T14:13:04.057Z,18.50
2018-11-27T14:15:31.302Z,18.47
2018-11-27T14:17:58.559Z,18.80
2018-11-27T14:20:28.262Z,19.47
2018-11-27T14:22:55.488Z,19.97
2018-11-27T14:25:22.707Z,19.10
2018-11-27T14:27:50.276Z,18.93
2018-11-27T14:30:18.295Z,20.03
2018-11-27T14:32:45.636Z,18.97
2018-11-27T14:35:13.182Z,18.63
2018-11-27T14:37:40.408Z,18.87
2018-11-27T14:40:10.232Z,18.67
2018-11-27T14:42:37.488Z,17.47
2018-11-27T14:45:08.433Z,20.43
2018-11-27T14:47:35.607Z,19.40
2018-11-27T14:50:04.173Z,19.73
2018-11-27T14:52:30.136Z,20.93
2018-11-27T14:54:57.347Z,19.03
2018-11-27T14:57:24.593Z,18.93
2018-11-27T14:59:51.816Z,21.03
2018-11-27T15:02:19.031Z,19.43
2018-11-27T15:04:46.256Z,20.03
2018-11-27T15:07:13.426Z,20.33
2018-11-27T15:09:40.628Z,19.03
2018-11-27T15:12:07.846Z,18.97
2018-11-27T15:14:35.112Z,19.07
2018-11-27T15:17:02.271Z,17.60
2018-11-27T15:19:29.471Z,17.90
2018-11-27T15:21:56.700Z,19.07
2018-11-27T15:24:23.897Z,19.40
2018-11-27T15:26:51.095Z,18.37
2018-11-27T15:29:18.259Z,17.83
2018-11-27T15:31:45.430Z,19.43
2018-11-27T15:34:12.639Z,18.20
2018-11-27T15:36:39.844Z,18.87
2018-11-27T15:39:08.385Z,19.27
2018-11-27T15:41:35.655Z,18.80
2018-11-27T15:44:02.889Z,20.33
2018-11-27T15:46:30.150Z,18.80
2018-11-27T15:48:57.359Z,20.17
2018-11-27T15:51:24.567Z,19.33
2018-11-27T15:53:51.788Z,19.50
2018-11-27T15:56:19.056Z,19.40
2018-11-27T15:58:46.307Z,20.43
2018-11-27T16:01:13.528Z,20.33
2018-11-27T16:03:40.710Z,19.93
2018-11-27T16:06:07.931Z,20.03
2018-11-27T16:08:38.153Z,19.40
2018-11-27T16:11:05.361Z,18.60
2018-11-27T16:13:32.591Z,17.37
2018-11-27T16:15:59.797Z,19.87
2018-11-27T16:18:27.053Z,19.23
2018-11-27T16:20:54.279Z,19.90
2018-11-27T16:23:21.487Z,18.50
2018-11-27T16:25:48.660Z,19.67
2018-11-27T16:28:15.851Z,18.27
2018-11-27T16:30:43.113Z,19.13
2018-11-27T16:33:10.347Z,20.23
2018-11-27T16:35:37.526Z,19.53
2018-11-27T16:38:05.042Z,22.67
2018-11-27T16:40:33.911Z,21.73
2018-11-27T16:43:01.113Z,18.97
2018-11-27T16:45:28.323Z,20.50
2018-11-27T16:47:55.485Z,21.27
2018-11-27T16:50:22.707Z,20.43
2018-11-27T16:52:49.903Z,20.80
2018-11-27T16:55:17.689Z,20.90
2018-11-27T16:57:44.906Z,20.63
2018-11-27T17:00:13.799Z,20.03
2018-11-27T17:02:41.050Z,19.87
2018-11-27T17:05:08.406Z,21.00
2018-11-27T17:07:35.582Z,21.80
2018-11-27T17:10:03.507Z,19.57
2018-11-27T17:12:30.768Z,21.33
2018-11-27T17:14:57.992Z,22.73
2018-11-27T17:17:25.178Z,22.20
2018-11-27T17:19:52.456Z,22.13
2018-11-27T17:22:19.685Z,19.93
2018-11-27T17:24:46.933Z,20.67
2018-11-27T17:27:14.160Z,20.73
2018-11-27T17:29:41.318Z,20.27
2018-11-27T17:32:08.542Z,19.90
2018-11-27T17:34:35.752Z,20.90
2018-11-27T17:37:02.966Z,21.43
2018-11-27T17:39:30.168Z,22.60
2018-11-27T17:41:57.411Z,21.40
2018-11-27T17:44:24.614Z,21.67
2018-11-27T17:46:51.842Z,21.57
2018-11-27T17:49:19.095Z,21.23
2018-11-27T17:51:46.272Z,20.57
2018-11-27T17:54:13.475Z,21.17
2018-11-27T17:56:40.700Z,21.87
2018-11-27T17:59:07.916Z,21.70
2018-11-27T18:01:35.152Z,20.87
2018-11-27T18:04:02.352Z,22.77
2018-11-27T18:06:29.569Z,21.97
2018-11-27T18:08:56.783Z,22.83
2018-11-27T18:11:24.015Z,20.23
2018-11-27T18:13:51.143Z,22.23
2018-11-27T18:16:18.358Z,20.20
2018-11-27T18:18:45.507Z,20.70
2018-11-27T18:21:12.715Z,20.23
2018-11-27T18:23:39.943Z,20.03
2018-11-27T18:26:07.182Z,19.83
2018-11-27T18:28:34.383Z,21.67
2018-11-27T18:31:01.615Z,22.10
2018-11-27T18:33:28.818Z,21.27
2018-11-27T18:35:55.986Z,20.63
2018-11-27T18:38:23.243Z,20.97
2018-11-27T18:40:50.447Z,22.27
2018-11-27T18:43:17.720Z,22.17
2018-11-27T18:45:44.913Z,25.60
2018-11-27T18:48:12.171Z,25.07
2018-11-27T18:50:39.412Z,20.80
2018-11-27T18:53:06.656Z,20.73
2018-11-27T18:55:33.870Z,20.27
2018-11-27T18:58:01.130Z,21.13
2018-11-27T19:00:28.926Z,23.33
2018-11-27T19:02:56.192Z,21.73
2018-11-27T19:05:23.426Z,21.83
2018-11-27T19:07:50.668Z,20.87
2018-11-27T19:10:25.211Z,20.93
2018-11-27T19:12:52.387Z,22.47
2018-11-27T19:15:27.996Z,21.70
2018-11-27T19:17:56.017Z,23.70
2018-11-27T19:20:23.282Z,22.00
2018-11-27T19:22:50.535Z,23.27
2018-11-27T19:25:17.755Z,24.23
2018-11-27T19:27:45.015Z,24.60
2018-11-27T19:30:16.136Z,22.90
2018-11-27T19:32:42.002Z,23.97
2018-11-27T19:35:10.610Z,21.83
2018-11-27T19:37:37.835Z,20.93
2018-11-27T19:40:06.343Z,19.73
2018-11-27T19:42:33.565Z,20.20
2018-11-27T19:45:00.772Z,21.43
2018-11-27T19:47:28.008Z,21.50
2018-11-27T19:49:55.295Z,20.27
2018-11-27T19:52:22.559Z,20.20
2018-11-27T19:54:49.771Z,20.20
2018-11-27T19:57:17.028Z,20.00
2018-11-27T19:59:44.284Z,19.47
2018-11-27T20:02:11.487Z,19.73
2018-11-27T20:04:38.703Z,17.83
2018-11-27T20:07:05.854Z,17.07
2018-11-27T20:09:33.120Z,23.00
2018-11-27T20:12:00.283Z,21.20
2018-11-27T20:14:27.526Z,18.80
2018-11-27T20:16:54.748Z,20.57
2018-11-27T20:19:21.966Z,19.40
2018-11-27T20:21:49.215Z,19.13
2018-11-27T20:24:16.447Z,18.43
2018-11-27T20:26:43.687Z,19.30
2018-11-27T20:29:10.943Z,17.67
2018-11-27T20:31:38.185Z,18.87
2018-11-27T20:34:05.455Z,19.30
2018-11-27T20:36:32.723Z,18.23
2018-11-27T20:39:00.738Z,19.77
2018-11-27T20:41:27.211Z,20.17
2018-11-27T20:43:54.441Z,17.43
2018-11-27T20:46:22.687Z,19.53
2018-11-27T20:48:49.927Z,19.37
2018-11-27T20:51:20.099Z,18.10
2018-11-27T20:53:47.303Z,17.73
2018-11-27T20:56:14.471Z,18.60
2018-11-27T20:58:41.722Z,21.43
2018-11-27T21:01:09.611Z,23.67
2018-11-27T21:03:36.191Z,21.57
2018-11-27T21:06:03.469Z,19.00
2018-11-27T21:08:30.666Z,18.73
2018-11-27T21:10:57.893Z,17.67
2018-11-27T21:13:25.126Z,17.03
2018-11-27T21:15:52.378Z,18.27
2018-11-27T21:18:19.607Z,18.43
2018-11-27T21:20:46.872Z,17.40
2018-11-27T21:23:14.111Z,18.23
2018-11-27T21:25:41.362Z,18.90
2018-11-27T21:28:11.118Z,18.67
2018-11-27T21:30:38.362Z,17.07
2018-11-27T21:33:05.658Z,17.93
2018-11-27T21:35:32.904Z,18.23
2018-11-27T21:38:00.162Z,18.83
2018-11-27T21:40:27.391Z,18.70
2018-11-27T21:42:54.646Z,20.10
2018-11-27T21:45:22.782Z,18.33
2018-11-27T21:47:50.443Z,19.03
2018-11-27T21:50:18.266Z,18.23
2018-11-27T21:52:45.522Z,20.85
2018-11-27T21:55:14.565Z,19.00
2018-11-27T21:57:41.982Z,18.23
2018-11-27T22:00:11.161Z,18.30
2018-11-27T22:02:38.494Z,18.47
2018-11-27T22:05:06.220Z,17.07
2018-11-27T22:07:33.569Z,18.30
2018-11-27T22:10:01.249Z,18.47
2018-11-27T22:12:28.566Z,20.00
2018-11-27T22:14:55.964Z,18.70
2018-11-27T22:17:23.242Z,18.97
2018-11-27T22:19:50.484Z,19.63
2018-11-27T22:22:17.736Z,18.80
2018-11-27T22:24:45.041Z,18.57
2018-11-27T22:27:12.280Z,19.27
2018-11-27T22:29:39.566Z,18.57
2018-11-27T22:32:07.135Z,18.50
2018-11-27T22:34:34.402Z,18.50
2018-11-27T22:37:01.646Z,18.03
2018-11-27T22:39:28.880Z,19.60
2018-11-27T22:41:56.139Z,18.17
2018-11-27T22:44:23.400Z,17.27
2018-11-27T22:46:51.149Z,19.50
2018-11-27T22:49:18.405Z,19.40
2018-11-27T22:51:45.611Z,19.97
2018-11-27T22:54:12.994Z,19.33
2018-11-27T22:56:40.259Z,19.97
2018-11-27T22:59:07.546Z,17.40
2018-11-27T23:01:37.670Z,17.80
2018-11-27T23:04:05.733Z,17.87
2018-11-27T23:06:32.995Z,20.60
2018-11-27T23:09:00.237Z,18.47
2018-11-27T23:11:27.472Z,20.67
2018-11-27T23:13:54.657Z,18.87
2018-11-27T23:16:21.910Z,20.10
2018-11-27T23:18:49.138Z,18.63
2018-11-27T23:21:16.355Z,19.47
2018-11-27T23:23:43.626Z,20.17
2018-11-27T23:26:10.806Z,18.70
2018-11-27T23:28:38.063Z,18.73
2018-11-27T23:31:05.315Z,19.40
2018-11-27T23:33:32.482Z,18.00
2018-11-27T23:35:59.704Z,19.83
2018-11-27T23:38:26.951Z,18.77
2018-11-27T23:40:54.187Z,19.60
2018-11-27T23:43:21.390Z,21.23
2018-11-27T23:45:48.619Z,18.53
2018-11-27T23:48:15.839Z,21.93
2018-11-27T23:50:43.098Z,20.10
2018-11-27T23:53:10.381Z,19.03
2018-11-27T23:55:37.643Z,19.93
2018-11-27T23:58:05.332Z,23.53
